Time;durP1;ratioP1;P1;durP2;ratioP2;P2;SDS_P1;SDS_P2;PMS_P1;PMS_P2;Temp;Humidity;BMP_temperature;BMP_pressure;BME280_temperature;BME280_humidity;BME280_pressure;Samples;Min_cycle;Max_cycle;Signal;HPM_P1;HPM_P2
2022/05/06 00:01:32;;;;;;;8.63;4.60;;;;;;;13.75;60.75;99982.19;5013149;28;20179;-82
2022/05/06 00:03:58;;;;;;;11.70;4.57;;;;;;;13.81;61.97;100028.25;4996996;28;20175;-82
2022/05/06 00:06:23;;;;;;;7.10;4.13;;;;;;;13.38;62.52;99964.56;5014292;28;20178;-83
2022/05/06 00:08:49;;;;;;;10.63;4.50;;;;;;;13.52;61.95;100002.47;5013702;28;20190;-83
2022/05/06 00:11:14;;;;;;;9.13;4.53;;;;;;;13.71;62.25;100031.22;4998533;28;20234;-83
2022/05/06 00:13:40;;;;;;;5.47;4.23;;;;;;;13.06;62.42;99925.06;4994779;28;20571;-83
2022/05/06 00:16:06;;;;;;;5.47;4.07;;;;;;;13.78;63.05;100035.78;4994691;28;20163;-83
2022/05/06 00:18:31;;;;;;;7.13;4.20;;;;;;;13.80;61.87;100035.03;4994513;28;20250;-83
2022/05/06 00:21:00;;;;;;;8.83;4.10;;;;;;;13.36;63.00;99966.19;5007042;28;20181;-81
2022/05/06 00:23:25;;;;;;;6.37;4.30;;;;;;;13.58;62.79;100040.91;5013839;28;20643;-83
2022/05/06 00:25:51;;;;;;;6.40;4.00;;;;;;;13.02;63.06;99940.97;5014235;28;20177;-82
2022/05/06 00:28:16;;;;;;;8.47;4.30;;;;;;;13.57;64.12;100044.25;5014719;28;20198;-82
2022/05/06 00:30:42;;;;;;;7.57;4.13;;;;;;;13.57;63.55;100048.47;5006518;28;20318;-83
2022/05/06 00:33:09;;;;;;;8.73;4.23;;;;;;;13.55;64.46;100050.94;4996929;28;20206;-83
2022/05/06 00:35:38;;;;;;;6.50;4.40;;;;;;;13.32;64.34;100027.91;4995099;28;20183;-83
2022/05/06 00:38:04;;;;;;;4.60;3.90;;;;;;;13.27;66.35;100007.34;4995090;28;20637;-81
2022/05/06 00:40:29;;;;;;;8.50;4.57;;;;;;;13.25;64.85;99991.16;5002871;28;20504;-83
2022/05/06 00:42:56;;;;;;;7.73;4.10;;;;;;;13.49;65.48;100050.69;5015569;28;20171;-83
2022/05/06 00:45:27;;;;;;;4.93;4.23;;;;;;;13.46;64.71;100044.59;5014310;28;20195;-84
2022/05/06 00:47:53;;;;;;;8.97;4.30;;;;;;;13.24;65.11;100022.47;4997491;28;20582;-82
2022/05/06 00:50:19;;;;;;;6.23;4.53;;;;;;;12.77;66.24;99968.69;5010431;28;20214;-83
2022/05/06 00:52:44;;;;;;;8.77;4.53;;;;;;;12.31;66.48;99894.66;4996852;28;20615;-83
2022/05/06 00:55:11;;;;;;;10.57;4.50;;;;;;;13.25;65.11;100054.72;4994859;28;20569;-82
2022/05/06 00:57:36;;;;;;;9.40;4.50;;;;;;;10.65;64.41;99607.31;4996008;28;20173;-83
2022/05/06 01:00:20;;;;;;;10.97;4.70;;;;;;;13.32;65.74;100050.78;4999805;28;20178;-83
2022/05/06 01:02:46;;;;;;;9.30;4.93;;;;;;;13.18;65.67;100037.47;5014898;28;20180;-83
2022/05/06 01:05:13;;;;;;;8.00;4.37;;;;;;;12.61;66.43;99945.97;5015991;28;20183;-84
2022/05/06 01:07:39;;;;;;;11.13;5.23;;;;;;;13.07;68.92;100053.03;5013845;28;20193;-82
2022/05/06 01:10:05;;;;;;;7.73;4.57;;;;;;;12.23;71.94;99932.41;5008712;28;20294;-82
2022/05/06 01:12:30;;;;;;;12.73;4.90;;;;;;;12.49;70.01;99960.66;4996446;28;20167;-82
2022/05/06 01:14:55;;;;;;;9.07;4.80;;;;;;;13.02;72.97;100068.06;4994341;28;20620;-84
2022/05/06 01:17:22;;;;;;;9.13;4.90;;;;;;;12.99;74.28;100070.50;4994957;28;20168;-82
2022/05/06 01:19:47;;;;;;;13.13;5.20;;;;;;;12.97;73.97;100072.06;4996067;28;20170;-81
2022/05/06 01:22:14;;;;;;;7.43;4.67;;;;;;;12.87;75.70;100073.34;5013936;28;20257;-83
2022/05/06 01:24:39;;;;;;;10.87;5.00;;;;;;;12.92;74.48;100068.47;4996050;28;20209;-83
2022/05/06 01:27:11;;;;;;;10.40;4.83;;;;;;;12.92;74.15;100068.47;5013162;28;20170;-82
2022/05/06 01:29:38;;;;;;;10.10;5.10;;;;;;;12.81;74.71;100069.66;5011814;28;20237;-81
2022/05/06 01:32:03;;;;;;;10.33;4.87;;;;;;;12.60;73.53;100036.53;4993764;28;20607;-83
2022/05/06 01:34:32;;;;;;;12.57;5.03;;;;;;;12.47;73.71;100010.50;4994100;28;20640;-83
2022/05/06 01:37:02;;;;;;;9.70;5.10;;;;;;;12.16;75.07;99987.91;4995106;28;20160;-83
2022/05/06 01:39:34;;;;;;;10.53;5.00;;;;;;;12.42;75.36;100054.31;5008021;28;20269;-83
2022/05/06 01:42:04;;;;;;;11.77;5.47;;;;;;;12.51;74.79;100064.03;5015269;28;20171;-83
2022/05/06 01:44:35;;;;;;;9.83;4.97;;;;;;;12.23;74.61;100013.63;5014934;28;20260;-83
2022/05/06 01:47:05;;;;;;;8.47;5.10;;;;;;;12.44;75.13;100065.41;5018431;28;20179;-83
2022/05/06 01:49:31;;;;;;;12.37;5.27;;;;;;;12.03;75.84;100006.75;5000217;28;20203;-81
2022/05/06 01:51:58;;;;;;;9.57;5.40;;;;;;;12.15;77.44;100039.44;4992509;28;20163;-83
2022/05/06 01:54:24;;;;;;;9.27;5.33;;;;;;;12.20;78.28;100051.56;4992720;28;20524;-83
2022/05/06 01:56:50;;;;;;;9.37;5.50;;;;;;;12.02;79.46;100027.84;4992610;28;20172;-82
2022/05/06 01:59:15;;;;;;;8.80;5.10;;;;;;;12.06;79.40;100039.88;5002513;28;20190;-83
2022/05/06 02:01:41;;;;;;;11.77;5.23;;;;;;;12.01;78.39;100048.94;5012906;28;20187;-82
2022/05/06 02:06:50;;;;;;;9.27;5.93;;;;;;;12.18;80.62;100052.28;5012430;28;20174;-83
2022/05/06 02:09:16;;;;;;;9.13;5.57;;;;;;;12.15;80.44;100042.88;5002106;28;20203;-83
2022/05/06 02:11:42;;;;;;;7.13;5.00;;;;;;;12.17;80.83;100045.47;4991938;28;20612;-83
2022/05/06 02:14:08;;;;;;;8.23;5.30;;;;;;;12.00;80.69;100019.31;4992169;28;20174;-81
2022/05/06 02:16:33;;;;;;;11.33;5.30;;;;;;;12.10;80.45;100046.84;4992012;28;20649;-81
2022/05/06 02:18:59;;;;;;;14.83;5.83;;;;;;;12.03;80.90;100032.13;4981368;28;20174;-82
2022/05/06 02:21:25;;;;;;;14.60;5.80;;;;;;;12.10;80.97;100039.25;5011091;28;20198;-83
2022/05/06 02:23:50;;;;;;;9.67;5.60;;;;;;;11.10;81.38;99871.16;5011806;28;20175;-83
2022/05/06 02:26:16;;;;;;;10.43;6.17;;;;;;;12.03;81.31;100046.50;5011375;28;20237;-83
2022/05/06 02:28:41;;;;;;;11.20;5.83;;;;;;;12.00;81.03;100047.22;5006867;28;20713;-83
2022/05/06 02:33:50;;;;;;;10.83;5.90;;;;;;;11.98;82.27;100051.34;4992408;28;20169;-82
2022/05/06 02:36:16;;;;;;;12.97;6.43;;;;;;;11.90;82.95;100056.81;4992072;28;20254;-82
2022/05/06 02:38:41;;;;;;;11.50;6.77;;;;;;;11.56;83.52;100003.56;4996209;28;20179;-82
2022/05/06 02:41:07;;;;;;;11.63;6.93;;;;;;;11.84;84.21;100057.41;5014737;28;20640;-83
2022/05/06 02:43:32;;;;;;;11.03;6.73;;;;;;;11.66;84.80;100019.31;5015681;28;20226;-82
2022/05/06 02:45:58;;;;;;;13.10;6.53;;;;;;;11.67;83.42;100004.97;5016081;28;20295;-83
2022/05/06 02:48:23;;;;;;;10.30;6.80;;;;;;;11.31;83.48;99975.25;5021414;28;20202;-83
2022/05/06 02:50:48;;;;;;;11.70;7.30;;;;;;;11.65;84.87;100053.06;5006525;28;20592;-82
2022/05/06 02:53:14;;;;;;;11.73;7.37;;;;;;;11.54;85.53;100025.41;4998874;28;20160;-83
2022/05/06 02:55:39;;;;;;;13.23;7.40;;;;;;;11.67;88.07;100050.63;4995912;28;20174;-83
2022/05/06 02:58:06;;;;;;;11.07;7.03;;;;;;;11.72;88.88;100059.34;4995817;28;20178;-83
2022/05/06 03:00:31;;;;;;;11.87;6.83;;;;;;;11.78;87.63;100047.81;5014622;28;20174;-82
2022/05/06 03:02:57;;;;;;;17.43;7.43;;;;;;;11.65;88.47;100031.91;5015626;28;20166;-82
2022/05/06 03:05:23;;;;;;;10.27;6.87;;;;;;;11.36;89.87;100000.03;5016877;28;20253;-83
2022/05/06 03:07:50;;;;;;;13.70;7.10;;;;;;;11.61;91.24;100063.88;5011556;28;20179;-82
2022/05/06 03:10:15;;;;;;;15.67;7.13;;;;;;;11.46;90.51;100011.50;4996277;28;20679;-84
2022/05/06 03:12:42;;;;;;;12.60;7.60;;;;;;;11.02;89.10;99989.84;4996248;28;20249;-83
2022/05/06 03:15:08;;;;;;;13.60;7.77;;;;;;;11.42;88.77;100062.84;4996891;28;20542;-81
2022/05/06 03:17:34;;;;;;;18.70;9.17;;;;;;;11.18;91.92;100032.91;4997806;28;20191;-82
2022/05/06 03:20:00;;;;;;;22.43;10.67;;;;;;;11.01;92.43;99994.88;5014890;28;20170;-82
2022/05/06 03:22:26;;;;;;;18.20;10.57;;;;;;;11.21;91.07;100002.66;5015817;28;20178;-82
2022/05/06 03:24:52;;;;;;;23.73;10.80;;;;;;;10.79;90.26;99941.34;5016209;28;20166;-80
2022/05/06 03:30:02;;;;;;;21.67;10.57;;;;;;;11.51;88.23;100043.88;4995338;28;20277;-82
2022/05/06 03:32:28;;;;;;;25.00;12.80;;;;;;;11.67;88.20;100073.44;4979730;28;20581;-83
2022/05/06 03:34:53;;;;;;;25.13;12.77;;;;;;;11.64;89.36;100071.63;4995412;28;20171;-83
2022/05/06 03:37:19;;;;;;;18.57;11.30;;;;;;;11.59;91.12;100062.06;4994858;28;20229;-81
2022/05/06 03:39:44;;;;;;;20.80;11.17;;;;;;;10.78;92.18;99934.53;4994029;28;20182;-82
2022/05/06 03:42:10;;;;;;;17.83;10.07;;;;;;;11.45;90.36;100008.13;5014597;28;20181;-82
2022/05/06 03:44:35;;;;;;;18.57;10.03;;;;;;;11.06;89.64;99930.09;5014287;28;20226;-82
2022/05/06 03:47:01;;;;;;;22.03;9.90;;;;;;;11.75;90.02;100050.25;5014578;28;20166;-83
2022/05/06 03:49:26;;;;;;;14.93;8.93;;;;;;;12.14;87.94;100080.88;4997796;28;20207;-83
2022/05/06 03:51:51;;;;;;;15.27;8.80;;;;;;;12.20;87.97;100084.56;4994092;28;20218;-82
2022/05/06 03:54:17;;;;;;;14.13;8.60;;;;;;;12.28;87.86;100090.88;4977773;28;20206;-82
2022/05/06 03:56:42;;;;;;;17.37;8.60;;;;;;;12.24;88.39;100088.13;4995585;28;20258;-83
2022/05/06 03:59:09;;;;;;;15.67;8.80;;;;;;;12.22;88.14;100077.88;4996411;28;20216;-83
2022/05/06 04:01:35;;;;;;;16.50;8.60;;;;;;;12.27;87.83;100078.13;4994817;28;20167;-83
2022/05/06 04:04:01;;;;;;;14.73;8.67;;;;;;;12.17;87.40;100041.25;4977272;28;20253;-81
2022/05/06 04:06:27;;;;;;;12.60;8.63;;;;;;;11.27;86.83;99865.25;4996949;28;20207;-82
2022/05/06 04:08:53;;;;;;;15.47;8.60;;;;;;;12.66;87.08;100094.38;5014487;28;20268;-83
2022/05/06 04:11:20;;;;;;;15.03;8.60;;;;;;;12.57;87.14;100097.34;5015666;28;20178;-82
2022/05/06 04:13:45;;;;;;;16.73;9.23;;;;;;;12.14;87.89;100023.34;5014790;28;20611;-83
2022/05/06 04:16:10;;;;;;;16.73;9.00;;;;;;;12.24;87.66;100032.28;5014140;28;20193;-83
2022/05/06 04:18:36;;;;;;;16.77;8.63;;;;;;;12.11;87.56;100052.81;4999684;28;20229;-83
2022/05/06 04:23:46;;;;;;;16.50;9.57;;;;;;;11.79;87.45;100028.41;4994644;28;20226;-83
2022/05/06 04:26:11;;;;;;;20.20;10.00;;;;;;;12.12;88.43;100108.72;4994500;28;20583;-83
2022/05/06 04:28:37;;;;;;;17.00;9.33;;;;;;;12.12;87.89;100088.41;4988745;28;20671;-83
2022/05/06 04:31:03;;;;;;;23.40;12.90;;;;;;;12.32;86.74;100097.84;5014665;28;20176;-83
2022/05/06 04:33:28;;;;;;;33.83;18.20;;;;;;;11.34;87.20;99963.63;4997168;28;20183;-83
2022/05/06 04:35:56;;;;;;;40.40;21.83;;;;;;;11.20;88.72;99949.38;4991719;28;20194;-83
2022/05/06 04:38:26;;;;;;;29.23;15.73;;;;;;;11.79;89.42;100077.47;4994839;28;20172;-83
2022/05/06 04:40:54;;;;;;;44.57;25.53;;;;;;;11.76;91.16;100104.34;4976324;28;20266;-82
2022/05/06 04:43:20;;;;;;;45.30;28.33;;;;;;;11.87;90.71;100098.16;4993526;28;20715;-82
2022/05/06 04:45:47;;;;;;;35.13;20.10;;;;;;;11.82;88.96;100026.91;4995312;28;20171;-83
2022/05/06 04:48:14;;;;;;;17.70;12.10;;;;;;;12.20;88.42;100101.47;5033519;28;20181;-82
2022/05/06 04:50:40;;;;;;;20.23;11.03;;;;;;;12.14;88.92;100107.09;5021092;28;20175;-82
2022/05/06 04:53:08;;;;;;;19.00;11.30;;;;;;;12.22;88.93;100095.66;4996839;28;20188;-83
2022/05/06 04:55:35;;;;;;;19.83;12.00;;;;;;;12.63;87.61;100107.78;4993735;28;20566;-83
2022/05/06 04:58:01;;;;;;;21.37;13.57;;;;;;;12.59;86.08;100082.16;4993894;28;20202;-82
2022/05/06 05:00:26;;;;;;;22.33;12.97;;;;;;;12.62;87.42;100128.91;4995230;28;20175;-83
2022/05/06 05:02:51;;;;;;;30.83;18.00;;;;;;;12.34;89.64;100116.56;5004817;28;20178;-83
2022/05/06 05:05:18;;;;;;;20.53;13.10;;;;;;;12.43;88.18;100114.47;4977374;28;20179;-81
2022/05/06 05:07:43;;;;;;;20.93;12.70;;;;;;;12.04;88.84;100074.47;4992839;28;20179;-81
2022/05/06 05:10:09;;;;;;;19.47;13.13;;;;;;;12.09;88.28;100062.88;4975423;28;20289;-81
2022/05/06 05:12:35;;;;;;;22.10;14.77;;;;;;;12.73;86.23;100116.69;5004367;28;20181;-82
2022/05/06 05:15:01;;;;;;;18.37;10.77;;;;;;;12.95;84.46;100119.44;5012603;28;20596;-81
2022/05/06 05:17:26;;;;;;;17.90;11.23;;;;;;;13.12;83.51;100118.56;5012391;28;20171;-82
2022/05/06 05:19:52;;;;;;;17.33;11.33;;;;;;;13.26;82.86;100129.34;4994958;28;20267;-81
2022/05/06 05:22:18;;;;;;;33.10;17.07;;;;;;;11.77;82.67;99860.06;5003325;28;20182;-81
2022/05/06 05:24:44;;;;;;;30.13;17.13;;;;;;;12.93;83.33;100086.34;4992874;28;20214;-82
2022/05/06 05:27:09;;;;;;;25.53;14.77;;;;;;;12.13;84.96;99993.72;4993122;28;20183;-80
2022/05/06 05:29:35;;;;;;;34.27;19.10;;;;;;;12.37;86.76;100024.44;4993102;28;20202;-81
2022/05/06 05:32:00;;;;;;;30.90;19.63;;;;;;;13.11;85.31;100105.75;4981215;28;20244;-81
2022/05/06 05:34:26;;;;;;;25.83;16.73;;;;;;;13.12;84.50;100131.28;5012143;28;20708;-83
2022/05/06 05:36:51;;;;;;;24.60;16.63;;;;;;;12.75;84.83;100065.16;4994667;28;20178;-80
2022/05/06 05:39:17;;;;;;;50.87;27.07;;;;;;;13.07;84.44;100108.94;5012029;28;20260;-82
2022/05/06 05:41:42;;;;;;;33.40;16.17;;;;;;;13.24;81.79;100128.41;5006121;28;20668;-80
2022/05/06 05:49:38;;;;;;;23.27;12.13;;;;;;;13.59;77.92;100128.28;4992401;28;20273;-82
2022/05/06 05:52:05;;;;;;;17.33;11.90;;;;;;;13.97;74.74;100100.22;4984437;28;20246;-82
2022/05/06 05:54:30;;;;;;;21.60;11.20;;;;;;;14.16;73.15;100134.94;4991109;28;20186;-82
2022/05/06 05:56:56;;;;;;;16.13;11.00;;;;;;;14.33;70.93;100079.63;4992362;28;20289;-81
2022/05/06 05:59:23;;;;;;;17.60;9.97;;;;;;;14.14;67.38;100004.16;5008452;28;20297;-84
2022/05/06 06:01:49;;;;;;;15.97;9.27;;;;;;;14.47;64.73;100055.56;4989596;28;20249;-81
2022/05/06 06:04:15;;;;;;;23.30;12.37;;;;;;;14.78;66.93;100140.88;5004578;28;20191;-80
2022/05/06 06:06:41;;;;;;;18.87;10.30;;;;;;;14.96;64.81;100133.09;5008692;28;20561;-82
2022/05/06 06:09:07;;;;;;;14.73;9.10;;;;;;;15.14;62.82;100105.69;5008751;28;20217;-81
2022/05/06 06:11:33;;;;;;;14.90;9.50;;;;;;;15.54;62.49;100128.47;4991739;28;20183;-81
2022/05/06 06:13:58;;;;;;;22.27;10.27;;;;;;;15.18;62.14;100035.28;5001178;28;20261;-81
2022/05/06 06:16:24;;;;;;;22.20;10.13;;;;;;;15.46;62.57;100081.41;5008966;28;20202;-82
2022/05/06 06:18:49;;;;;;;19.27;10.13;;;;;;;15.74;62.34;100086.59;5008380;28;20182;-83
2022/05/06 06:21:14;;;;;;;18.27;11.90;;;;;;;15.89;63.02;100101.59;5008493;28;20199;-84
2022/05/06 06:23:40;;;;;;;18.13;10.80;;;;;;;15.86;63.23;100066.59;5009749;28;20179;-82
2022/05/06 06:26:05;;;;;;;17.30;11.07;;;;;;;15.42;64.40;100028.47;5009797;28;20182;-83
2022/05/06 06:28:31;;;;;;;17.80;9.67;;;;;;;16.34;62.53;100127.78;5009004;28;20195;-83
2022/05/06 06:30:56;;;;;;;16.57;9.97;;;;;;;16.06;61.42;100125.13;5008467;28;20183;-82
2022/05/06 06:33:21;;;;;;;17.40;9.77;;;;;;;16.36;60.11;100128.69;5009663;28;20193;-82
2022/05/06 06:35:47;;;;;;;13.37;8.60;;;;;;;16.45;56.83;100119.63;5008703;28;20261;-81
2022/05/06 06:38:12;;;;;;;14.13;9.20;;;;;;;15.20;57.90;99983.50;4990880;28;20601;-82
2022/05/06 06:40:38;;;;;;;10.90;7.63;;;;;;;16.12;57.21;100128.78;5009472;28;20194;-82
2022/05/06 06:43:04;;;;;;;11.27;7.53;;;;;;;16.36;55.72;100040.13;5011449;28;20190;-81
2022/05/06 06:45:30;;;;;;;14.93;7.93;;;;;;;16.70;54.72;100116.16;5020753;28;20655;-81
2022/05/06 06:47:58;;;;;;;12.20;8.47;;;;;;;16.26;55.94;100016.81;5008833;28;20191;-82
2022/05/06 06:50:24;;;;;;;37.97;19.90;;;;;;;16.05;55.71;99954.81;5008819;28;20271;-84
2022/05/06 06:52:50;;;;;;;16.70;9.13;;;;;;;16.89;55.08;100069.03;4997871;28;20226;-83
2022/05/06 06:55:15;;;;;;;13.07;8.13;;;;;;;17.01;55.14;100103.50;5010016;28;20182;-83
2022/05/06 06:57:41;;;;;;;9.83;7.30;;;;;;;17.42;54.18;100119.13;5009655;28;20967;-83
2022/05/06 07:00:08;;;;;;;12.50;7.53;;;;;;;17.15;54.35;100052.72;5008109;28;20631;-85
2022/05/06 07:02:35;;;;;;;17.03;12.63;;;;;;;17.23;54.04;100107.53;4991973;28;20200;-85
2022/05/06 07:05:01;;;;;;;32.23;21.37;;;;;;;17.60;53.80;100106.88;5008428;28;20186;-83
2022/05/06 07:12:54;;;;;;;17.60;8.33;;;;;;;18.33;53.14;100107.06;5009469;28;20667;-83
2022/05/06 07:15:20;;;;;;;11.23;8.27;;;;;;;18.27;51.55;100053.94;5008375;28;20178;-83
2022/05/06 07:17:45;;;;;;;15.10;8.60;;;;;;;18.60;51.49;100076.06;5009132;28;20183;-82
2022/05/06 07:20:11;;;;;;;13.53;7.87;;;;;;;18.22;50.22;100054.66;5007781;28;20635;-83
2022/05/06 07:22:36;;;;;;;14.17;7.77;;;;;;;18.46;50.70;100108.22;5006964;28;20186;-84
2022/05/06 07:25:02;;;;;;;12.13;8.13;;;;;;;18.74;49.98;100082.38;5009984;28;20182;-80
2022/05/06 07:27:28;;;;;;;12.33;8.53;;;;;;;18.67;49.36;100050.63;5018449;28;20724;-83
2022/05/06 07:29:53;;;;;;;12.17;8.03;;;;;;;19.16;47.78;100060.19;5017360;28;20265;-84
2022/05/06 07:32:18;;;;;;;11.33;7.97;;;;;;;19.10;47.45;100074.59;5012904;28;20197;-83
2022/05/06 07:34:44;;;;;;;11.93;7.80;;;;;;;19.34;47.69;100069.94;5012043;28;20197;-82
2022/05/06 07:37:09;;;;;;;11.20;7.73;;;;;;;19.71;47.16;100099.78;5018797;28;20228;-82
2022/05/06 07:39:35;;;;;;;10.80;7.20;;;;;;;19.66;46.17;100047.47;5019916;28;20253;-83
2022/05/06 07:42:00;;;;;;;10.90;6.83;;;;;;;19.96;45.63;100095.13;4994192;28;20190;-83
2022/05/06 07:44:26;;;;;;;12.03;7.30;;;;;;;19.62;46.68;100066.22;5010582;28;20782;-82
2022/05/06 07:46:52;;;;;;;12.50;7.60;;;;;;;18.38;46.55;99896.91;5010417;28;20186;-84
2022/05/06 07:49:17;;;;;;;16.70;8.03;;;;;;;18.81;46.99;99973.94;5010642;28;20217;-82
2022/05/06 07:51:43;;;;;;;10.83;7.20;;;;;;;19.45;46.89;100108.72;4999581;28;20182;-83
2022/05/06 07:54:09;;;;;;;14.20;7.63;;;;;;;19.43;47.67;100109.53;5012742;28;20249;-83
2022/05/06 07:56:34;;;;;;;10.47;7.50;;;;;;;19.61;47.25;100108.16;4998532;28;20191;-81
2022/05/06 07:59:00;;;;;;;11.53;7.10;;;;;;;19.47;46.83;100114.75;4997947;28;20178;-82
2022/05/06 08:06:54;;;;;;;13.10;7.87;;;;;;;19.13;47.13;100046.41;5011711;28;20289;-84
2022/05/06 08:09:23;;;;;;;13.50;8.77;;;;;;;19.36;47.90;100115.38;5017144;28;20255;-82
2022/05/06 08:11:48;;;;;;;10.60;7.60;;;;;;;18.69;47.69;99973.69;5013309;28;20224;-82
2022/05/06 08:14:16;;;;;;;13.50;7.90;;;;;;;19.94;46.50;100107.06;5015425;28;20227;-83
2022/05/06 08:16:42;;;;;;;13.23;8.07;;;;;;;19.81;46.88;100088.81;5015381;28;20178;-83
2022/05/06 08:19:07;;;;;;;12.73;8.67;;;;;;;20.29;46.42;100115.41;5017092;28;20191;-82
2022/05/06 08:21:33;;;;;;;11.77;8.37;;;;;;;20.07;46.54;100117.56;4995985;28;20244;-83
2022/05/06 08:23:58;;;;;;;14.57;8.67;;;;;;;19.92;47.29;100113.00;5011858;28;20191;-82
2022/05/06 08:26:23;;;;;;;13.33;8.40;;;;;;;20.06;46.92;100105.53;5012548;28;20195;-82
2022/05/06 08:28:49;;;;;;;14.17;8.07;;;;;;;20.21;47.56;100113.53;5013710;28;20214;-82
2022/05/06 08:31:14;;;;;;;11.50;8.77;;;;;;;20.22;46.65;100110.97;5013687;28;20194;-84
2022/05/06 08:33:40;;;;;;;12.20;8.73;;;;;;;20.12;46.78;100114.22;5004891;28;20683;-81
2022/05/06 08:36:06;;;;;;;18.57;9.23;;;;;;;20.09;47.08;100116.75;5008166;28;20174;-83
2022/05/06 08:38:31;;;;;;;15.57;10.43;;;;;;;20.19;47.55;100103.19;5009610;28;20202;-82
2022/05/06 08:40:59;;;;;;;16.87;10.50;;;;;;;19.94;47.24;100075.38;5019934;28;20221;-82
2022/05/06 08:43:25;;;;;;;12.93;9.10;;;;;;;20.19;47.05;100067.19;5014122;28;20229;-81
2022/05/06 08:51:31;;;;;;;10.97;8.63;;;;;;;21.18;44.47;100105.56;5009613;28;20264;-83
2022/05/06 08:53:57;;;;;;;14.00;8.67;;;;;;;20.44;45.52;100047.88;4997493;28;20230;-81
2022/05/06 08:56:22;;;;;;;14.63;8.27;;;;;;;20.86;45.59;100079.38;5011358;28;20187;-81
2022/05/06 08:58:48;;;;;;;13.03;8.50;;;;;;;21.35;45.12;100096.31;5010837;28;20190;-82
2022/05/06 09:01:16;;;;;;;13.93;8.77;;;;;;;21.72;44.18;100076.97;5010488;28;20182;-83
2022/05/06 09:03:42;;;;;;;14.00;9.03;;;;;;;22.11;44.01;100064.44;5010996;28;21213;-82
2022/05/06 09:06:25;;;;;;;15.60;9.30;;;;;;;22.13;42.79;100085.09;5002338;28;20262;-82
2022/05/06 09:08:52;;;;;;;15.80;9.17;;;;;;;22.17;43.20;100056.75;4996366;28;20290;-82
2022/05/06 09:12:40;;;;;;;15.57;9.20;;;;;;;22.34;43.25;100096.44;4995940;28;20183;-82
2022/05/06 09:14:04;;;;;;;13.77;8.63;;;;;;;21.57;44.46;100062.22;5010802;28;20256;-83
2022/05/06 09:16:41;;;;;;;13.37;9.23;;;;;;;21.37;45.37;100097.19;5009524;28;20183;-81
2022/05/06 09:19:24;;;;;;;12.77;9.27;;;;;;;21.22;45.36;100053.25;5010492;28;20179;-83
2022/05/06 09:22:06;;;;;;;15.20;9.50;;;;;;;22.02;44.82;100082.44;5011213;28;20194;-82
2022/05/06 09:24:37;;;;;;;14.57;9.17;;;;;;;22.47;43.73;100079.31;5014104;28;20182;-83
2022/05/06 09:27:07;;;;;;;12.37;9.40;;;;;;;22.43;42.98;100071.56;5011841;28;20279;-84
2022/05/06 09:29:49;;;;;;;13.27;9.00;;;;;;;22.00;43.32;99964.66;4992470;28;20247;-81
2022/05/06 09:32:16;;;;;;;12.80;9.13;;;;;;;22.66;43.60;100065.72;5006280;28;20843;-82
2022/05/06 09:34:43;;;;;;;15.30;9.60;;;;;;;22.37;43.88;100068.94;5007191;28;20268;-82
2022/05/06 09:37:09;;;;;;;15.83;10.13;;;;;;;22.90;42.86;100068.44;5008594;28;20187;-82
2022/05/06 09:39:38;;;;;;;10.50;9.07;;;;;;;23.37;42.38;100060.00;5012027;28;20187;-83
2022/05/06 09:42:05;;;;;;;16.80;9.83;;;;;;;23.61;41.29;100073.00;4991851;28;20187;-83
2022/05/06 09:44:32;;;;;;;13.40;9.50;;;;;;;22.92;41.83;100056.41;4990784;28;20226;-82
2022/05/06 09:47:09;;;;;;;19.97;9.77;;;;;;;22.70;42.88;100028.75;5018739;23;20234;-81
2022/05/06 09:49:41;;;;;;;14.23;9.23;;;;;;;23.01;42.68;100009.09;5008994;28;20280;-84
2022/05/06 09:52:14;;;;;;;14.97;9.03;;;;;;;22.94;42.72;99998.72;5006825;28;20232;-82
2022/05/06 09:54:41;;;;;;;15.03;9.30;;;;;;;23.32;42.12;100051.38;5006684;28;20984;-82
2022/05/06 09:57:08;;;;;;;13.50;9.33;;;;;;;23.64;41.71;100043.72;5007059;28;20179;-83
2022/05/06 09:59:35;;;;;;;20.33;12.70;;;;;;;23.15;42.61;100037.53;5006463;28;20206;-82
2022/05/06 10:02:00;;;;;;;18.50;9.37;;;;;;;22.26;43.56;99908.91;4990193;28;20186;-83
2022/05/06 10:04:26;;;;;;;13.27;9.27;;;;;;;22.23;42.62;99891.72;5004987;28;20195;-81
2022/05/06 10:06:54;;;;;;;12.57;9.00;;;;;;;22.65;44.00;100033.03;5006458;28;20653;-81
2022/05/06 10:09:23;;;;;;;16.00;8.93;;;;;;;22.54;44.20;100028.63;4981246;28;20231;-83
2022/05/06 10:11:51;;;;;;;16.33;9.33;;;;;;;21.83;44.50;99914.66;4996232;28;20221;-81
2022/05/06 10:14:18;;;;;;;20.13;10.07;;;;;;;22.92;43.98;100025.41;5004822;28;20269;-82
2022/05/06 10:16:44;;;;;;;13.47;8.80;;;;;;;22.01;42.10;99884.72;5003200;28;20190;-80
2022/05/06 10:19:26;;;;;;;10.90;8.40;;;;;;;22.95;41.43;100018.53;5007627;28;20183;-80
2022/05/06 10:21:55;;;;;;;13.50;8.27;;;;;;;23.19;41.27;100016.88;5009516;28;20201;-82
2022/05/06 10:24:21;;;;;;;11.80;9.50;;;;;;;23.23;41.36;99955.75;5009252;28;20286;-84
2022/05/06 10:26:51;;;;;;;10.73;8.33;;;;;;;23.82;40.31;100013.56;5009572;28;20202;-84
2022/05/06 10:35:12;;;;;;;8.93;6.90;;;;;;;24.67;36.97;100010.84;5010238;28;20201;-84
2022/05/06 10:37:46;;;;;;;9.80;6.60;;;;;;;24.50;36.54;99985.00;5004413;28;20188;-83
2022/05/06 10:40:23;;;;;;;8.97;6.80;;;;;;;24.16;37.34;100004.09;5006483;28;20171;-83
2022/05/06 10:42:49;;;;;;;10.43;6.90;;;;;;;24.59;37.15;99997.06;5011933;28;20214;-82
2022/05/06 10:45:26;;;;;;;8.40;7.07;;;;;;;24.58;36.26;100001.38;5014935;28;20257;-84
2022/05/06 10:47:52;;;;;;;10.17;6.83;;;;;;;24.96;36.60;99964.16;5008977;28;20318;-84
2022/05/06 10:50:20;;;;;;;12.67;7.40;;;;;;;24.73;37.40;99989.25;5009473;28;20210;-81
2022/05/06 10:52:47;;;;;;;10.63;7.90;;;;;;;24.04;37.32;99867.81;4997522;28;20193;-84
2022/05/06 10:55:14;;;;;;;12.13;7.27;;;;;;;24.81;37.78;99980.63;5008516;28;20179;-83
2022/05/06 10:57:51;;;;;;;8.57;6.80;;;;;;;25.00;36.00;99971.88;5006004;28;20171;-85
2022/05/06 11:00:18;;;;;;;10.40;7.00;;;;;;;25.19;34.91;99975.22;4993646;28;20584;-84
2022/05/06 11:02:44;;;;;;;10.80;5.50;;;;;;;25.48;33.64;99969.88;5015055;28;20554;-83
2022/05/06 11:05:14;;;;;;;8.00;5.70;;;;;;;24.41;32.75;99891.88;5005677;28;20171;-84
2022/05/06 11:07:42;;;;;;;7.20;5.40;;;;;;;24.63;33.21;99947.00;4999262;28;20175;-85
2022/05/06 11:10:10;;;;;;;5.77;4.60;;;;;;;23.68;32.74;99839.44;5011017;28;20191;-81
2022/05/06 11:12:42;;;;;;;5.87;4.30;;;;;;;24.06;33.40;99940.25;5010971;28;20297;-85
2022/05/06 11:15:13;;;;;;;8.37;4.60;;;;;;;24.23;33.47;99953.19;5012286;28;20190;-86
2022/05/06 11:17:38;;;;;;;7.53;4.80;;;;;;;24.40;34.13;99936.72;4987736;28;20288;-85
2022/05/06 11:20:16;;;;;;;6.97;4.70;;;;;;;24.27;32.39;99900.53;5006888;28;20267;-84
2022/05/06 11:22:57;;;;;;;7.60;4.60;;;;;;;24.19;33.11;99946.28;5011153;28;20177;-85
2022/05/06 11:25:25;;;;;;;6.73;5.13;;;;;;;24.70;32.09;99946.09;5010211;28;20688;-86
2022/05/06 11:27:56;;;;;;;7.57;4.63;;;;;;;25.24;31.15;99944.97;5012389;28;20223;-83
2022/05/06 11:30:23;;;;;;;9.63;4.50;;;;;;;25.24;31.29;99909.53;5013823;28;20208;-87
2022/05/06 11:32:54;;;;;;;7.80;5.18;;;;;;;25.22;32.70;99924.22;4994567;28;20210;-85
2022/05/06 11:35:27;;;;;;;7.07;4.78;;;;;;;24.52;32.21;99809.84;5001982;28;20242;-86
2022/05/06 11:37:52;;;;;;;6.85;4.60;;;;;;;25.57;31.13;99917.97;4998479;28;20192;-86
2022/05/06 11:42:51;;;;;;;7.88;4.72;;;;;;;25.85;31.09;99942.75;5010506;28;20193;-88
2022/05/06 11:48:06;;;;;;;7.07;5.03;;;;;;;25.85;31.39;99939.34;5012209;28;20193;-86
2022/05/06 11:50:33;;;;;;;7.88;4.47;;;;;;;25.77;30.68;99877.97;5000058;28;20368;-86
2022/05/06 11:53:01;;;;;;;7.53;4.70;;;;;;;26.57;29.95;99925.56;4995366;28;20193;-86
2022/05/06 11:55:28;;;;;;;7.05;4.43;;;;;;;25.98;30.50;99858.75;5011926;28;20204;-86
2022/05/06 11:57:54;;;;;;;9.73;4.70;;;;;;;24.88;30.00;99705.16;4992574;28;20182;-86
2022/05/06 12:00:20;;;;;;;6.25;4.30;;;;;;;25.06;30.01;99707.53;4994112;28;20179;-83
2022/05/06 12:02:50;;;;;;;6.03;4.35;;;;;;;25.14;30.23;99700.56;5008016;28;20193;-87